Time;durP1;ratioP1;P1;durP2;ratioP2;P2;SDS_P1;SDS_P2;PMS_P1;PMS_P2;Temp;Humidity;BMP_temperature;BMP_pressure;BME280_temperature;BME280_humidity;BME280_pressure;Samples;Min_cycle;Max_cycle;Signal;HPM_P1;HPM_P2
2023/07/21 00:01:28;;;;;;;3.65;2.72;;;;;;;;;;4980290;28;20045;-52
2023/07/21 00:03:53;;;;;;;10.75;2.90;;;;;;;;;;4991407;28;20025;-49
2023/07/21 00:06:19;;;;;;;11.70;3.13;;;;;;;;;;4991406;28;20488;-49
2023/07/21 00:08:44;;;;;;;5.35;2.97;;;;;;;;;;4991277;28;20031;-53
2023/07/21 00:11:10;;;;;;;7.00;3.30;;;;;;;;;;4987972;28;20038;-51
2023/07/21 00:13:36;;;;;;;7.45;2.85;;;;;;;;;;4993796;28;20026;-51
2023/07/21 00:16:04;;;;;;;7.25;3.00;;;;;;;;;;4995827;28;20428;-49
2023/07/21 00:18:30;;;;;;;6.70;2.88;;;;;;;;;;4994403;28;20113;-48
2023/07/21 00:20:56;;;;;;;5.68;2.30;;;;;;;;;;4988778;28;20481;-48
2023/07/21 00:23:23;;;;;;;7.47;3.00;;;;;;;;;;4995635;28;20390;-50
2023/07/21 00:25:50;;;;;;;8.75;2.92;;;;;;;;;;4994170;28;20042;-49
2023/07/21 00:28:17;;;;;;;6.03;2.85;;;;;;;;;;4993069;28;20034;-51
2023/07/21 00:30:46;;;;;;;5.47;2.88;;;;;;;;;;4962024;28;20409;-50
2023/07/21 00:33:13;;;;;;;8.77;3.13;;;;;;;;;;4991394;28;20026;-48
2023/07/21 00:35:39;;;;;;;4.88;3.50;;;;;;;;;;4993399;28;20129;-53
2023/07/21 00:38:04;;;;;;;4.65;3.10;;;;;;;;;;4994510;28;20022;-53
2023/07/21 00:40:33;;;;;;;5.70;2.95;;;;;;;;;;4994223;28;20129;-49
2023/07/21 00:42:58;;;;;;;12.15;3.15;;;;;;;;;;4990032;28;20077;-49
2023/07/21 00:45:23;;;;;;;9.80;3.10;;;;;;;;;;4992732;28;20051;-46
2023/07/21 00:47:49;;;;;;;14.45;3.25;;;;;;;;;;4996422;28;20027;-50
2023/07/21 00:50:16;;;;;;;5.50;3.15;;;;;;;;;;4993006;28;20038;-50
2023/07/21 00:52:42;;;;;;;6.13;2.80;;;;;;;;;;4997821;28;20393;-50
2023/07/21 00:55:08;;;;;;;6.18;3.28;;;;;;;;;;4988838;28;20034;-48
2023/07/21 00:57:35;;;;;;;7.15;3.00;;;;;;;;;;4998709;28;20022;-50
2023/07/21 01:00:02;;;;;;;11.10;3.42;;;;;;;;;;4996969;28;20097;-48
2023/07/21 01:02:29;;;;;;;11.60;3.63;;;;;;;;;;4991884;28;20041;-47
2023/07/21 01:04:59;;;;;;;6.40;3.20;;;;;;;;;;4987879;28;20029;-47
2023/07/21 01:07:25;;;;;;;9.10;3.33;;;;;;;;;;4973086;28;20022;-47
2023/07/21 01:09:51;;;;;;;5.47;3.22;;;;;;;;;;4976489;28;20114;-46
2023/07/21 01:12:17;;;;;;;5.78;3.10;;;;;;;;;;4978476;28;20412;-48
2023/07/21 01:14:42;;;;;;;6.05;2.90;;;;;;;;;;4979202;28;20027;-47
2023/07/21 01:17:09;;;;;;;6.80;3.17;;;;;;;;;;4992905;28;20030;-48
2023/07/21 01:19:37;;;;;;;6.78;3.20;;;;;;;;;;4990986;28;20037;-51
2023/07/21 01:22:15;;;;;;;7.68;3.25;;;;;;;;;;4987885;28;20039;-47
2023/07/21 01:24:44;;;;;;;5.78;3.28;;;;;;;;;;4991903;28;20052;-49
2023/07/21 01:27:11;;;;;;;13.07;3.75;;;;;;;;;;4991943;28;20488;-50
2023/07/21 01:29:40;;;;;;;11.60;3.03;;;;;;;;;;4989510;28;20064;-44
2023/07/21 01:32:09;;;;;;;10.90;3.17;;;;;;;;;;4968893;28;20644;-53
2023/07/21 01:34:36;;;;;;;11.70;4.10;;;;;;;;;;4973756;28;20051;-53
2023/07/21 01:37:03;;;;;;;8.32;2.97;;;;;;;;;;4977104;28;20078;-51
2023/07/21 01:39:31;;;;;;;8.90;3.25;;;;;;;;;;4963326;28;20046;-51
2023/07/21 01:41:59;;;;;;;6.45;3.85;;;;;;;;;;4968449;28;20114;-52
2023/07/21 01:44:24;;;;;;;6.22;2.92;;;;;;;;;;4992443;28;20113;-49
2023/07/21 01:46:51;;;;;;;8.40;2.90;;;;;;;;;;4993832;28;20063;-50
2023/07/21 01:49:17;;;;;;;6.18;3.40;;;;;;;;;;4993511;28;20094;-51
2023/07/21 01:51:44;;;;;;;10.68;3.13;;;;;;;;;;4989532;28;20035;-51
2023/07/21 01:54:39;;;;;;;9.65;3.15;;;;;;;;;;4995268;28;20118;-48
2023/07/21 01:57:07;;;;;;;11.82;3.67;;;;;;;;;;4974370;28;20046;-48
2023/07/21 01:59:33;;;;;;;4.88;3.10;;;;;;;;;;4992470;28;20480;-47
2023/07/21 02:01:59;;;;;;;5.15;3.25;;;;;;;;;;4994247;28;20069;-50
2023/07/21 02:04:25;;;;;;;5.55;3.33;;;;;;;;;;4992159;28;20025;-53
2023/07/21 02:06:51;;;;;;;7.93;3.08;;;;;;;;;;4989706;28;20049;-50
2023/07/21 02:09:19;;;;;;;4.72;3.17;;;;;;;;;;4995392;28;20034;-51
2023/07/21 02:11:45;;;;;;;8.80;3.35;;;;;;;;;;4988838;28;20070;-50
2023/07/21 02:14:10;;;;;;;7.20;2.80;;;;;;;;;;4996286;28;20157;-51
2023/07/21 02:16:37;;;;;;;6.35;3.20;;;;;;;;;;4985176;28;20066;-52
2023/07/21 02:19:06;;;;;;;9.75;3.22;;;;;;;;;;4986322;28;20117;-46
2023/07/21 02:21:34;;;;;;;6.10;3.28;;;;;;;;;;4993630;28;20040;-53
2023/07/21 02:24:00;;;;;;;7.55;3.47;;;;;;;;;;4993020;28;20549;-49
2023/07/21 02:26:26;;;;;;;8.50;2.90;;;;;;;;;;4987863;28;20042;-52
2023/07/21 02:28:52;;;;;;;5.28;2.92;;;;;;;;;;4996385;28;20037;-50
2023/07/21 02:31:18;;;;;;;5.78;3.10;;;;;;;;;;4986855;28;20041;-50
2023/07/21 02:33:43;;;;;;;5.82;3.20;;;;;;;;;;4987180;28;20105;-49
2023/07/21 02:36:09;;;;;;;4.38;2.70;;;;;;;;;;4991610;28;20077;-52
2023/07/21 02:38:34;;;;;;;6.97;3.10;;;;;;;;;;4996583;28;20527;-53
2023/07/21 02:41:04;;;;;;;8.15;3.33;;;;;;;;;;4995074;28;20531;-49
2023/07/21 02:43:30;;;;;;;10.52;3.08;;;;;;;;;;4987484;28;20034;-49
2023/07/21 02:45:56;;;;;;;7.93;3.30;;;;;;;;;;4989194;28;20145;-51
2023/07/21 02:48:22;;;;;;;4.82;2.72;;;;;;;;;;4961053;28;20062;-49
2023/07/21 02:50:49;;;;;;;3.30;2.70;;;;;;;;;;4980409;28;20571;-47
2023/07/21 02:53:16;;;;;;;4.05;3.25;;;;;;;;;;4991735;28;20030;-51
2023/07/21 02:55:42;;;;;;;5.13;3.30;;;;;;;;;;4994462;28;20097;-46
2023/07/21 02:58:09;;;;;;;9.15;3.92;;;;;;;;;;4995927;28;20480;-48
2023/07/21 03:00:35;;;;;;;8.25;2.95;;;;;;;;;;4974645;28;20042;-46
2023/07/21 03:03:01;;;;;;;6.30;2.70;;;;;;;;;;4991376;28;20022;-51
2023/07/21 03:05:29;;;;;;;9.80;3.45;;;;;;;;;;4995851;28;20052;-47
2023/07/21 03:07:56;;;;;;;9.45;3.20;;;;;;;;;;4986352;28;20050;-49
2023/07/21 03:10:22;;;;;;;3.35;3.00;;;;;;;;;;4993552;28;20030;-48
2023/07/21 03:12:47;;;;;;;3.17;2.53;;;;;;;;;;4995248;28;20118;-50
2023/07/21 03:15:13;;;;;;;5.53;3.00;;;;;;;;;;4994881;28;20037;-48
2023/07/21 03:17:38;;;;;;;5.18;3.00;;;;;;;;;;4994856;28;20128;-47
2023/07/21 03:20:11;;;;;;;6.53;2.78;;;;;;;;;;4994608;28;20133;-47
2023/07/21 03:22:36;;;;;;;8.80;3.25;;;;;;;;;;4986557;28;20034;-51
2023/07/21 03:25:05;;;;;;;6.53;3.00;;;;;;;;;;4990683;28;20042;-51
2023/07/21 03:27:30;;;;;;;11.82;3.80;;;;;;;;;;4995036;28;20688;-50
2023/07/21 03:29:56;;;;;;;5.80;3.13;;;;;;;;;;4987379;28;20151;-49
2023/07/21 03:32:21;;;;;;;4.20;3.03;;;;;;;;;;4985738;28;20026;-50
2023/07/21 03:34:50;;;;;;;14.98;3.80;;;;;;;;;;4975608;28;20085;-51
2023/07/21 03:37:16;;;;;;;6.53;3.60;;;;;;;;;;4995164;28;20026;-47
2023/07/21 03:39:44;;;;;;;6.95;3.28;;;;;;;;;;4988279;28;20030;-46
2023/07/21 03:42:10;;;;;;;5.72;3.10;;;;;;;;;;4969794;28;20030;-51
2023/07/21 03:44:35;;;;;;;7.82;3.33;;;;;;;;;;4993208;28;20032;-51
2023/07/21 03:47:01;;;;;;;7.03;3.78;;;;;;;;;;4973903;28;20069;-48
2023/07/21 03:49:26;;;;;;;7.38;2.67;;;;;;;;;;4988301;28;20022;-49
2023/07/21 03:51:52;;;;;;;4.25;2.60;;;;;;;;;;4987614;28;20048;-51
2023/07/21 03:54:17;;;;;;;9.15;3.30;;;;;;;;;;4994484;28;20033;-51
2023/07/21 03:56:42;;;;;;;10.05;3.38;;;;;;;;;;4990551;28;20034;-50
2023/07/21 03:59:08;;;;;;;4.90;3.05;;;;;;;;;;4991701;28;20037;-49
2023/07/21 04:01:33;;;;;;;5.57;2.90;;;;;;;;;;4990856;28;20117;-53
2023/07/21 04:03:59;;;;;;;3.60;3.00;;;;;;;;;;4991584;28;20026;-46
2023/07/21 04:06:24;;;;;;;6.90;2.92;;;;;;;;;;4993035;28;20129;-51
2023/07/21 04:08:53;;;;;;;4.35;3.00;;;;;;;;;;4993098;28;20038;-53
2023/07/21 04:11:19;;;;;;;12.52;3.28;;;;;;;;;;4989303;28;20479;-48
2023/07/21 04:13:44;;;;;;;3.53;3.20;;;;;;;;;;4979963;28;20038;-53
2023/07/21 04:16:11;;;;;;;6.55;2.85;;;;;;;;;;4986700;28;20404;-49
2023/07/21 04:18:37;;;;;;;6.15;2.80;;;;;;;;;;4995844;28;20022;-49
2023/07/21 04:21:03;;;;;;;6.55;3.08;;;;;;;;;;4997911;28;20129;-52
2023/07/21 04:23:28;;;;;;;5.95;3.03;;;;;;;;;;4996444;28;20053;-51
2023/07/21 04:25:54;;;;;;;3.17;2.50;;;;;;;;;;4995566;28;20042;-51
2023/07/21 04:28:19;;;;;;;5.03;2.28;;;;;;;;;;4988070;28;20030;-51
2023/07/21 04:30:47;;;;;;;10.40;2.60;;;;;;;;;;4980010;28;20030;-51
2023/07/21 04:33:13;;;;;;;13.02;2.63;;;;;;;;;;4992859;28;20033;-51
2023/07/21 04:35:45;;;;;;;9.20;2.83;;;;;;;;;;4992903;28;20045;-51
2023/07/21 04:38:11;;;;;;;3.08;2.60;;;;;;;;;;4996867;28;20062;-51
2023/07/21 04:40:36;;;;;;;10.73;3.03;;;;;;;;;;4971441;28;20066;-50
2023/07/21 04:43:02;;;;;;;4.50;2.53;;;;;;;;;;4987557;28;20037;-50
2023/07/21 04:45:27;;;;;;;4.53;2.20;;;;;;;;;;4990306;28;20087;-52
2023/07/21 04:47:53;;;;;;;2.65;2.45;;;;;;;;;;4979047;28;20934;-51
2023/07/21 04:50:19;;;;;;;6.88;2.67;;;;;;;;;;4989663;28;20474;-52
2023/07/21 04:52:44;;;;;;;6.20;2.70;;;;;;;;;;4977263;28;20551;-53
2023/07/21 04:55:10;;;;;;;6.07;2.40;;;;;;;;;;4995182;28;20041;-49
2023/07/21 04:57:35;;;;;;;4.65;2.45;;;;;;;;;;4996350;28;20041;-47
2023/07/21 05:00:02;;;;;;;3.08;2.22;;;;;;;;;;4989543;28;20034;-52
2023/07/21 05:02:28;;;;;;;2.30;1.73;;;;;;;;;;4990284;28;20480;-50
2023/07/21 05:04:55;;;;;;;5.43;2.50;;;;;;;;;;4991980;28;20036;-49
2023/07/21 05:07:20;;;;;;;3.83;2.10;;;;;;;;;;4996583;28;20490;-47
2023/07/21 05:09:46;;;;;;;6.90;2.00;;;;;;;;;;4984524;28;20034;-50
2023/07/21 05:12:12;;;;;;;4.55;2.40;;;;;;;;;;4994359;28;20023;-51
2023/07/21 05:14:37;;;;;;;4.38;2.17;;;;;;;;;;4977689;28;20041;-46
2023/07/21 05:17:02;;;;;;;3.65;2.53;;;;;;;;;;4985662;28;20168;-52
2023/07/21 05:19:28;;;;;;;2.65;1.90;;;;;;;;;;4998558;28;20057;-46
2023/07/21 05:21:55;;;;;;;3.53;2.25;;;;;;;;;;4993934;28;20065;-46
2023/07/21 05:24:22;;;;;;;4.63;2.38;;;;;;;;;;4994900;28;20532;-50
2023/07/21 05:26:48;;;;;;;4.20;2.60;;;;;;;;;;4994561;28;20046;-50
2023/07/21 05:29:14;;;;;;;7.40;2.30;;;;;;;;;;4977918;28;20030;-47
2023/07/21 05:31:39;;;;;;;10.98;3.20;;;;;;;;;;4994074;28;20033;-49
2023/07/21 05:34:07;;;;;;;14.27;3.00;;;;;;;;;;4976246;28;20034;-49
2023/07/21 05:36:33;;;;;;;8.75;3.05;;;;;;;;;;4988877;28;20129;-50
2023/07/21 05:38:59;;;;;;;5.93;2.83;;;;;;;;;;4997827;28;20046;-46
2023/07/21 05:41:24;;;;;;;6.70;2.70;;;;;;;;;;4992792;28;20447;-46
2023/07/21 05:43:50;;;;;;;4.90;2.55;;;;;;;;;;4988202;28;20022;-50
2023/07/21 05:46:15;;;;;;;15.13;2.90;;;;;;;;;;4988030;28;20114;-51
2023/07/21 05:48:41;;;;;;;9.82;2.60;;;;;;;;;;4996209;28;20072;-50
2023/07/21 05:51:12;;;;;;;3.35;2.15;;;;;;;;;;4993391;28;20031;-50
2023/07/21 05:53:37;;;;;;;5.95;2.10;;;;;;;;;;4990836;28;20100;-53
2023/07/21 05:56:06;;;;;;;5.70;2.92;;;;;;;;;;4979018;28;20051;-50
2023/07/21 05:58:32;;;;;;;10.63;2.78;;;;;;;;;;4986695;28;20026;-49
2023/07/21 06:00:57;;;;;;;6.93;3.25;;;;;;;;;;4982080;28;20049;-53
2023/07/21 06:03:22;;;;;;;8.60;2.40;;;;;;;;;;4987357;28;20109;-49
2023/07/21 06:05:52;;;;;;;4.57;2.33;;;;;;;;;;4984424;28;20421;-47
2023/07/21 06:08:17;;;;;;;4.75;2.53;;;;;;;;;;4978659;28;20039;-53
2023/07/21 06:10:42;;;;;;;3.38;2.03;;;;;;;;;;4968546;28;20432;-51
2023/07/21 06:13:08;;;;;;;7.18;2.60;;;;;;;;;;4991456;28;20029;-49
2023/07/21 06:15:36;;;;;;;9.90;2.03;;;;;;;;;;4991984;28;20117;-50
2023/07/21 06:18:03;;;;;;;4.05;1.60;;;;;;;;;;4970534;28;20041;-51
2023/07/21 06:20:28;;;;;;;2.58;1.85;;;;;;;;;;4990125;28;20122;-49
2023/07/21 06:22:54;;;;;;;6.50;1.60;;;;;;;;;;4991862;28;20121;-51
2023/07/21 06:25:20;;;;;;;8.57;1.98;;;;;;;;;;4992445;28;20034;-52
2023/07/21 06:27:47;;;;;;;5.07;2.35;;;;;;;;;;4984478;28;20117;-52
2023/07/21 06:30:13;;;;;;;2.97;1.67;;;;;;;;;;4986927;28;20132;-52
2023/07/21 06:32:40;;;;;;;3.17;1.50;;;;;;;;;;4986963;28;20022;-50
2023/07/21 06:35:07;;;;;;;11.50;1.70;;;;;;;;;;4986587;28;20098;-51
2023/07/21 06:37:33;;;;;;;4.03;2.30;;;;;;;;;;4988930;28;20077;-48
2023/07/21 06:39:59;;;;;;;7.30;2.33;;;;;;;;;;4993950;28;20088;-49
2023/07/21 06:42:24;;;;;;;6.18;1.77;;;;;;;;;;4987743;28;20027;-54
2023/07/21 06:44:50;;;;;;;2.22;1.70;;;;;;;;;;4990333;28;20113;-51
2023/07/21 06:47:17;;;;;;;5.38;1.70;;;;;;;;;;4990838;28;20030;-50
2023/07/21 06:49:42;;;;;;;8.38;2.20;;;;;;;;;;4991353;28;20135;-49
2023/07/21 06:52:08;;;;;;;2.85;1.90;;;;;;;;;;4991871;28;20027;-49
2023/07/21 06:54:35;;;;;;;5.90;1.60;;;;;;;;;;4988400;28;20042;-52
2023/07/21 06:57:01;;;;;;;5.97;2.03;;;;;;;;;;4984311;28;20034;-51
2023/07/21 06:59:26;;;;;;;7.22;1.73;;;;;;;;;;4994503;28;20117;-49
2023/07/21 07:01:52;;;;;;;2.28;1.70;;;;;;;;;;4989122;28;20050;-54
2023/07/21 07:04:17;;;;;;;2.03;1.40;;;;;;;;;;4989576;28;20062;-47
2023/07/21 07:06:43;;;;;;;4.65;1.77;;;;;;;;;;4993769;28;20030;-49
2023/07/21 07:09:09;;;;;;;2.90;1.50;;;;;;;;;;4975244;28;20034;-54
2023/07/21 07:11:34;;;;;;;2.42;1.42;;;;;;;;;;4993228;28;20110;-49
2023/07/21 07:14:00;;;;;;;2.30;1.80;;;;;;;;;;4990641;28;20527;-49
2023/07/21 07:16:26;;;;;;;1.75;1.65;;;;;;;;;;4993048;28;20038;-49
2023/07/21 07:18:51;;;;;;;2.63;1.40;;;;;;;;;;4991182;28;20026;-50
2023/07/21 07:21:16;;;;;;;11.68;2.50;;;;;;;;;;4992712;28;20097;-48
2023/07/21 07:23:42;;;;;;;6.30;1.65;;;;;;;;;;4983816;28;20030;-50
2023/07/21 07:26:08;;;;;;;6.18;1.70;;;;;;;;;;4990079;28;20043;-50
2023/07/21 07:28:33;;;;;;;3.92;1.63;;;;;;;;;;4981638;28;20037;-49
2023/07/21 07:31:06;;;;;;;4.18;1.70;;;;;;;;;;4981963;28;20046;-50
2023/07/21 07:33:32;;;;;;;3.50;1.70;;;;;;;;;;4995383;28;20460;-51
2023/07/21 07:35:59;;;;;;;4.50;1.50;;;;;;;;;;4981112;28;20046;-49
2023/07/21 07:38:29;;;;;;;3.97;1.70;;;;;;;;;;4987440;28;20057;-48
2023/07/21 07:41:00;;;;;;;7.03;1.55;;;;;;;;;;4992483;28;20044;-46
2023/07/21 07:43:26;;;;;;;1.50;1.40;;;;;;;;;;4992116;28;20030;-48
2023/07/21 07:45:52;;;;;;;5.15;1.63;;;;;;;;;;4983859;28;20066;-47
2023/07/21 07:48:17;;;;;;;3.92;1.80;;;;;;;;;;4989779;28;20173;-50
2023/07/21 07:50:43;;;;;;;5.70;1.80;;;;;;;;;;4989269;28;20069;-49
2023/07/21 07:53:09;;;;;;;2.97;1.80;;;;;;;;;;4986971;28;20038;-51
2023/07/21 07:55:42;;;;;;;5.93;2.05;;;;;;;;;;4992399;28;20034;-48
2023/07/21 07:58:08;;;;;;;8.20;1.73;;;;;;;;;;4986452;28;20035;-47
2023/07/21 08:00:37;;;;;;;5.85;1.92;;;;;;;;;;4993246;28;20034;-47
2023/07/21 08:03:04;;;;;;;2.53;1.88;;;;;;;;;;4984212;28;20041;-51
2023/07/21 08:05:30;;;;;;;3.67;1.40;;;;;;;;;;4990357;28;20035;-47
2023/07/21 08:07:58;;;;;;;3.00;2.00;;;;;;;;;;4975623;28;20109;-47
2023/07/21 08:10:27;;;;;;;2.88;1.65;;;;;;;;;;4995843;28;20046;-50
2023/07/21 08:12:55;;;;;;;6.45;1.80;;;;;;;;;;4994181;28;20026;-48
2023/07/21 08:15:22;;;;;;;2.85;1.45;;;;;;;;;;4989507;28;20042;-48
2023/07/21 08:17:48;;;;;;;5.80;1.83;;;;;;;;;;4988011;28;20026;-48
2023/07/21 08:20:13;;;;;;;8.48;1.92;;;;;;;;;;4993332;28;20500;-47
2023/07/21 08:22:39;;;;;;;4.15;1.73;;;;;;;;;;4983867;28;20037;-49
2023/07/21 08:25:05;;;;;;;2.45;1.50;;;;;;;;;;4989544;28;20045;-48
2023/07/21 08:27:34;;;;;;;4.78;1.77;;;;;;;;;;4992023;28;20040;-46
2023/07/21 08:29:59;;;;;;;3.63;1.65;;;;;;;;;;4983631;28;20039;-47
2023/07/21 08:32:25;;;;;;;2.38;1.80;;;;;;;;;;4979958;28;20134;-48
2023/07/21 08:34:50;;;;;;;6.78;1.70;;;;;;;;;;4992078;28;20530;-47
2023/07/21 08:37:16;;;;;;;3.85;1.60;;;;;;;;;;4992108;28;20121;-49
2023/07/21 08:39:41;;;;;;;4.60;1.88;;;;;;;;;;4993317;28;20059;-51
2023/07/21 08:42:12;;;;;;;2.03;1.50;;;;;;;;;;4989782;28;20112;-47
2023/07/21 08:44:38;;;;;;;6.70;2.17;;;;;;;;;;4990465;28;20388;-47
2023/07/21 08:47:03;;;;;;;4.03;1.50;;;;;;;;;;4993108;28;20561;-50
2023/07/21 08:49:29;;;;;;;6.38;1.63;;;;;;;;;;4988397;28;20057;-47
2023/07/21 08:51:55;;;;;;;2.22;1.55;;;;;;;;;;4987411;28;20034;-49
2023/07/21 08:54:21;;;;;;;2.35;1.80;;;;;;;;;;4983709;28;20036;-52
2023/07/21 08:56:46;;;;;;;6.43;1.95;;;;;;;;;;4986598;28;20046;-48
2023/07/21 08:59:12;;;;;;;4.07;1.80;;;;;;;;;;4986477;28;20042;-51
2023/07/21 09:01:37;;;;;;;5.93;1.90;;;;;;;;;;4991623;28;20030;-49
2023/07/21 09:04:17;;;;;;;4.35;2.03;;;;;;;;;;4988450;28;20572;-46
2023/07/21 09:06:52;;;;;;;2.10;1.65;;;;;;;;;;4989706;28;20155;-49
2023/07/21 09:09:21;;;;;;;3.05;1.40;;;;;;;;;;4986939;28;20041;-51
2023/07/21 09:11:47;;;;;;;10.35;2.00;;;;;;;;;;4990232;28;20034;-48
2023/07/21 09:14:14;;;;;;;3.85;2.05;;;;;;;;;;4982782;28;20076;-50
2023/07/21 09:16:40;;;;;;;4.60;1.80;;;;;;;;;;4987994;28;20037;-46
2023/07/21 09:19:06;;;;;;;3.25;1.88;;;;;;;;;;4985984;28;20380;-49
2023/07/21 09:21:35;;;;;;;5.65;2.55;;;;;;;;;;4993492;28;20043;-55
2023/07/21 09:24:05;;;;;;;2.78;2.40;;;;;;;;;;4985935;28;20404;-48
2023/07/21 09:26:32;;;;;;;3.23;1.93;;;;;;;;;;4982641;28;20488;-50
2023/07/21 09:28:57;;;;;;;2.08;1.83;;;;;;;;;;4980564;28;20043;-54
2023/07/21 09:31:34;;;;;;;2.67;1.70;;;;;;;;;;4979895;28;20046;-47
2023/07/21 09:34:07;;;;;;;4.18;1.95;;;;;;;;;;4986867;28;20030;-50
2023/07/21 09:36:33;;;;;;;3.53;1.77;;;;;;;;;;4988411;28;20041;-46
2023/07/21 09:39:03;;;;;;;5.57;2.03;;;;;;;;;;4986825;28;20026;-47
2023/07/21 09:41:31;;;;;;;5.00;1.90;;;;;;;;;;4996552;28;20042;-47
2023/07/21 09:43:58;;;;;;;8.98;2.17;;;;;;;;;;4988302;28;20033;-49
2023/07/21 09:46:24;;;;;;;8.93;2.17;;;;;;;;;;4992559;28;20153;-48
2023/07/21 09:48:49;;;;;;;3.40;2.40;;;;;;;;;;4980950;28;20161;-49
2023/07/21 09:51:18;;;;;;;5.50;1.90;;;;;;;;;;4988559;28;20026;-52
2023/07/21 09:53:44;;;;;;;2.58;2.10;;;;;;;;;;4993484;28;20032;-48
2023/07/21 09:56:11;;;;;;;4.68;2.38;;;;;;;;;;4989637;28;20160;-47
2023/07/21 09:58:42;;;;;;;7.90;2.17;;;;;;;;;;4986846;28;20064;-49
2023/07/21 10:01:09;;;;;;;8.27;2.25;;;;;;;;;;4987380;28;20062;-51
2023/07/21 10:03:36;;;;;;;3.55;2.30;;;;;;;;;;4987731;28;20038;-48
2023/07/21 10:06:03;;;;;;;4.65;2.33;;;;;;;;;;4990452;28;20049;-52
2023/07/21 10:08:31;;;;;;;8.43;2.67;;;;;;;;;;4995707;28;20026;-47
2023/07/21 10:10:58;;;;;;;13.18;2.70;;;;;;;;;;4970850;28;20071;-49
2023/07/21 10:13:28;;;;;;;3.38;1.70;;;;;;;;;;4967955;28;20034;-49
2023/07/21 10:16:05;;;;;;;5.03;2.00;;;;;;;;;;4963364;28;20456;-49
2023/07/21 10:18:30;;;;;;;9.00;2.42;;;;;;;;;;4953243;28;20461;-49
2023/07/21 10:20:56;;;;;;;3.40;2.17;;;;;;;;;;4947946;28;20043;-47
2023/07/21 10:23:35;;;;;;;8.57;2.42;;;;;;;;;;4974795;28;20508;-48
2023/07/21 10:26:08;;;;;;;3.55;2.33;;;;;;;;;;4969089;28;20385;-50
2023/07/21 10:28:34;;;;;;;7.38;2.15;;;;;;;;;;4976303;28;20038;-50
2023/07/21 10:31:21;;;;;;;2.47;2.22;;;;;;;;;;4970814;28;20043;-49
2023/07/21 10:34:09;;;;;;;2.50;2.28;;;;;;;;;;4975272;28;20169;-46
2023/07/21 10:36:48;;;;;;;5.97;2.42;;;;;;;;;;4970985;28;20524;-46
2023/07/21 10:39:16;;;;;;;4.05;2.13;;;;;;;;;;4978305;28;20045;-49
2023/07/21 10:41:45;;;;;;;4.40;2.40;;;;;;;;;;4990262;28;20039;-48
2023/07/21 10:44:11;;;;;;;3.60;2.30;;;;;;;;;;4992263;28;20023;-49
2023/07/21 10:46:41;;;;;;;6.38;2.08;;;;;;;;;;4985630;28;20043;-48
2023/07/21 10:49:11;;;;;;;6.57;2.05;;;;;;;;;;4980771;28;20038;-49
2023/07/21 10:51:47;;;;;;;5.00;2.40;;;;;;;;;;4984137;28;20033;-48
2023/07/21 10:54:14;;;;;;;3.45;2.22;;;;;;;;;;4992186;28;20084;-54
2023/07/21 10:56:45;;;;;;;4.68;3.60;;;;;;;;;;4968900;28;20043;-49
2023/07/21 10:59:11;;;;;;;;;;;;;;;;;;4962697;28;20166;-52
2023/07/21 11:01:44;;;;;;;3.15;2.38;;;;;;;;;;4971649;28;19966;-52
2023/07/21 11:04:11;;;;;;;3.17;2.30;;;;;;;;;;4968469;28;20050;-52
2023/07/21 11:07:04;;;;;;;8.10;2.80;;;;;;;;;;4972697;28;20045;-49
2023/07/21 11:09:33;;;;;;;4.68;2.60;;;;;;;;;;4971981;28;20043;-48
2023/07/21 11:11:59;;;;;;;4.50;2.53;;;;;;;;;;4964645;28;20031;-50
2023/07/21 11:14:26;;;;;;;4.47;3.17;;;;;;;;;;4963649;28;20033;-46
2023/07/21 11:16:57;;;;;;;7.72;2.67;;;;;;;;;;4963716;28;20611;-48
2023/07/21 11:19:24;;;;;;;4.63;2.88;;;;;;;;;;4966134;28;20030;-49
2023/07/21 11:21:50;;;;;;;2.58;2.38;;;;;;;;;;4969605;28;20078;-46
2023/07/21 11:24:26;;;;;;;4.80;2.42;;;;;;;;;;4968978;28;20034;-49
2023/07/21 11:27:02;;;;;;;4.55;2.67;;;;;;;;;;4967777;28;20031;-48
2023/07/21 11:29:31;;;;;;;4.95;2.25;;;;;;;;;;4972698;28;20054;-49
2023/07/21 11:31:57;;;;;;;5.53;2.40;;;;;;;;;;4994094;28;20030;-46
2023/07/21 11:34:28;;;;;;;4.68;2.60;;;;;;;;;;4994486;28;20045;-50
2023/07/21 11:36:59;;;;;;;3.15;2.72;;;;;;;;;;4992478;28;20046;-46
2023/07/21 11:39:27;;;;;;;3.05;2.38;;;;;;;;;;4989965;28;20069;-45
2023/07/21 11:41:57;;;;;;;3.63;2.53;;;;;;;;;;4994653;28;20546;-46
2023/07/21 11:44:30;;;;;;;4.65;2.88;;;;;;;;;;4986342;28;20054;-48
2023/07/21 11:47:04;;;;;;;3.28;2.90;;;;;;;;;;4986769;28;20047;-46
2023/07/21 11:49:31;;;;;;;8.00;2.88;;;;;;;;;;4988152;28;20033;-48
2023/07/21 11:52:03;;;;;;;7.60;2.60;;;;;;;;;;4992164;28;20123;-49
2023/07/21 11:54:29;;;;;;;;;;;;;;;;;;4992549;28;20033;-50
2023/07/21 11:56:57;;;;;;;3.25;2.50;;;;;;;;;;4987790;28;19917;-53
2023/07/21 11:59:24;;;;;;;5.03;2.35;;;;;;;;;;4982462;28;20026;-45
2023/07/21 12:01:50;;;;;;;5.70;2.63;;;;;;;;;;4983998;28;20141;-46
2023/07/21 12:04:17;;;;;;;3.72;2.90;;;;;;;;;;4992098;28;20049;-51
2023/07/21 12:06:43;;;;;;;4.40;3.42;;;;;;;;;;4992450;28;20042;-51
2023/07/21 12:09:09;;;;;;;3.90;2.65;;;;;;;;;;4993943;28;20202;-51
2023/07/21 12:11:35;;;;;;;3.40;2.63;;;;;;;;;;4994652;28;20117;-48
2023/07/21 12:14:02;;;;;;;4.38;2.40;;;;;;;;;;4995665;28;20038;-47
2023/07/21 12:16:29;;;;;;;5.10;2.97;;;;;;;;;;4990288;28;21489;-45
2023/07/21 12:18:55;;;;;;;7.40;2.88;;;;;;;;;;4987619;28;20026;-45
2023/07/21 12:21:20;;;;;;;4.22;2.83;;;;;;;;;;4992298;28;20102;-46
2023/07/21 12:23:46;;;;;;;8.48;2.75;;;;;;;;;;4985149;28;20041;-48
2023/07/21 12:26:12;;;;;;;4.47;3.03;;;;;;;;;;4985977;28;20050;-47
2023/07/21 12:28:38;;;;;;;3.15;2.85;;;;;;;;;;4990386;28;20022;-49
2023/07/21 12:31:03;;;;;;;19.35;3.00;;;;;;;;;;4976291;28;20129;-49
2023/07/21 12:33:29;;;;;;;5.95;2.90;;;;;;;;;;4985339;28;20027;-50
2023/07/21 12:35:55;;;;;;;3.15;2.85;;;;;;;;;;4988992;28;20038;-48
2023/07/21 12:38:20;;;;;;;5.10;2.72;;;;;;;;;;4986516;28;20042;-48
2023/07/21 12:40:47;;;;;;;5.80;3.08;;;;;;;;;;4982283;28;20467;-50
2023/07/21 12:43:13;;;;;;;9.15;3.40;;;;;;;;;;4992980;28;20047;-52
2023/07/21 12:45:39;;;;;;;5.93;3.13;;;;;;;;;;4992120;28;20102;-49
2023/07/21 12:48:05;;;;;;;3.97;2.78;;;;;;;;;;4986241;28;20065;-52
2023/07/21 12:50:30;;;;;;;5.35;3.13;;;;;;;;;;4985414;28;20074;-51
2023/07/21 12:52:56;;;;;;;3.83;2.83;;;;;;;;;;4994621;28;20448;-48
2023/07/21 12:55:21;;;;;;;4.03;3.13;;;;;;;;;;4989627;28;20042;-46
2023/07/21 12:57:46;;;;;;;5.45;3.03;;;;;;;;;;4980265;28;20035;-50
2023/07/21 13:00:13;;;;;;;4.75;2.97;;;;;;;;;;4987298;28;20035;-46
2023/07/21 13:02:39;;;;;;;11.18;3.25;;;;;;;;;;4993147;28;20030;-51
2023/07/21 13:05:06;;;;;;;7.38;3.15;;;;;;;;;;4987243;28;20042;-46
2023/07/21 13:07:32;;;;;;;6.07;3.30;;;;;;;;;;4990598;28;20026;-51
2023/07/21 13:09:57;;;;;;;3.38;3.08;;;;;;;;;;4988341;28;20049;-47
2023/07/21 13:12:23;;;;;;;12.00;3.35;;;;;;;;;;4989718;28;20126;-49
2023/07/21 13:14:48;;;;;;;3.40;2.92;;;;;;;;;;4973857;28;20034;-53
2023/07/21 13:17:14;;;;;;;3.42;3.10;;;;;;;;;;4995942;28;20030;-51
2023/07/21 13:19:40;;;;;;;4.00;2.90;;;;;;;;;;4975404;28;20030;-49
2023/07/21 13:22:05;;;;;;;4.47;3.38;;;;;;;;;;4989135;28;20142;-48
2023/07/21 13:24:31;;;;;;;5.55;3.20;;;;;;;;;;4987043;28;20038;-49
2023/07/21 13:26:57;;;;;;;4.40;3.20;;;;;;;;;;4986820;28;20039;-48
2023/07/21 13:29:22;;;;;;;3.95;3.08;;;;;;;;;;4983798;28;20035;-51
2023/07/21 13:31:48;;;;;;;3.58;3.28;;;;;;;;;;4982290;28;20059;-51
2023/07/21 13:34:13;;;;;;;5.72;3.30;;;;;;;;;;4994110;28;20030;-54
2023/07/21 13:36:39;;;;;;;6.70;3.08;;;;;;;;;;4986717;28;20133;-49
2023/07/21 13:39:05;;;;;;;6.15;3.75;;;;;;;;;;4989279;28;20068;-49
2023/07/21 13:41:32;;;;;;;6.18;3.70;;;;;;;;;;4983615;28;20043;-48
2023/07/21 13:43:57;;;;;;;4.28;3.03;;;;;;;;;;4995946;28;20026;-52
2023/07/21 13:46:24;;;;;;;7.80;3.75;;;;;;;;;;4987898;28;20063;-49
2023/07/21 13:48:50;;;;;;;3.70;3.33;;;;;;;;;;4984005;28;20046;-52
2023/07/21 13:51:16;;;;;;;6.95;3.22;;;;;;;;;;4993749;28;20122;-46
2023/07/21 13:53:41;;;;;;;4.95;4.22;;;;;;;;;;4969933;28;20080;-52
2023/07/21 13:56:07;;;;;;;4.05;3.50;;;;;;;;;;4993563;28;20062;-46
2023/07/21 13:58:32;;;;;;;9.13;3.50;;;;;;;;;;4987537;28;20500;-47
2023/07/21 14:00:58;;;;;;;4.82;3.65;;;;;;;;;;4984222;28;20077;-47
2023/07/21 14:03:26;;;;;;;6.90;3.55;;;;;;;;;;4987518;28;20042;-50
2023/07/21 14:05:52;;;;;;;4.82;3.13;;;;;;;;;;4987640;28;20082;-48
2023/07/21 14:08:19;;;;;;;5.38;3.22;;;;;;;;;;4981513;28;20384;-46
2023/07/21 14:10:45;;;;;;;5.75;3.70;;;;;;;;;;4990030;28;20042;-46
2023/07/21 14:13:10;;;;;;;8.75;3.60;;;;;;;;;;4992285;28;20033;-50
2023/07/21 14:15:36;;;;;;;4.63;3.67;;;;;;;;;;4986686;28;20046;-54
2023/07/21 14:18:02;;;;;;;3.85;3.47;;;;;;;;;;4990535;28;20038;-48
2023/07/21 14:20:28;;;;;;;9.57;3.60;;;;;;;;;;4979378;28;20130;-49
2023/07/21 14:22:54;;;;;;;6.85;3.60;;;;;;;;;;4974909;28;20054;-51
2023/07/21 14:25:20;;;;;;;5.35;3.65;;;;;;;;;;4982201;28;20046;-50
2023/07/21 14:27:45;;;;;;;7.32;3.67;;;;;;;;;;4985477;28;20076;-47
2023/07/21 14:30:11;;;;;;;9.90;3.70;;;;;;;;;;4979088;28;20043;-50
2023/07/21 14:32:36;;;;;;;3.63;3.33;;;;;;;;;;4982671;28;20547;-48
2023/07/21 14:35:02;;;;;;;5.10;3.40;;;;;;;;;;4985516;28;20046;-47
2023/07/21 14:37:29;;;;;;;5.90;3.40;;;;;;;;;;4984563;28;20050;-49
2023/07/21 14:39:55;;;;;;;7.50;3.83;;;;;;;;;;4992511;28;20073;-49
2023/07/21 14:42:21;;;;;;;4.40;3.60;;;;;;;;;;4984499;28;20033;-47